Time;durP1;ratioP1;P1;durP2;ratioP2;P2;SDS_P1;SDS_P2;PMS_P1;PMS_P2;Temp;Humidity;BMP_temperature;BMP_pressure;BME280_temperature;BME280_humidity;BME280_pressure;Samples;Min_cycle;Max_cycle;Signal;HPM_P1;HPM_P2
2022/11/09 00:01:18;;;;;;;;;;;;;;;;;;5011317;28;19976;-71
2022/11/09 00:03:46;;;;;;;;;;;;;;;;;;5011850;28;19976;-71
2022/11/09 00:06:12;;;;;;;;;;;;;;;;;;5010433;28;20322;-71
2022/11/09 00:08:38;;;;;;;;;;;;;;;;;;5003448;28;19929;-71
2022/11/09 00:11:04;;;;;;;;;;;;;;;;;;5006646;28;19925;-72
2022/11/09 00:13:30;;;;;;;;;;;;;;;;;;5006340;28;19928;-72
2022/11/09 00:15:56;;;;;;;;;;;;;;;;;;5011540;28;19925;-70
2022/11/09 00:18:21;;;;;;;;;;;;;;;;;;5009238;28;19972;-71
2022/11/09 00:20:47;;;;;;;;;;;;;;;;;;5009777;28;19964;-72
2022/11/09 00:23:13;;;;;;;;;;;;;;;;;;5010814;28;19922;-72
2022/11/09 00:25:39;;;;;;;;;;;;;;;;;;5009810;28;19928;-71
2022/11/09 00:28:05;;;;;;;;;;;;;;;;;;5008107;28;20009;-72
2022/11/09 00:30:31;;;;;;;;;;;;;;;;;;5005331;28;19929;-73
2022/11/09 00:32:57;;;;;;;;;;;;;;;;;;5019024;28;20378;-72
2022/11/09 00:35:23;;;;;;;;;;;;;;;;;;5010915;28;19927;-71
2022/11/09 00:37:49;;;;;;;;;;;;;;;;;;5012689;28;19956;-73
2022/11/09 00:40:15;;;;;;;;;;;;;;;;;;5011622;28;20587;-71
2022/11/09 00:42:41;;;;;;;;;;;;;;;;;;5011564;28;19921;-72
2022/11/09 00:45:07;;;;;;;;;;;;;;;;;;5013028;28;19921;-72
2022/11/09 00:47:33;;;;;;;;;;;;;;;;;;5012851;28;19939;-71
2022/11/09 00:49:59;;;;;;;;;;;;;;;;;;5012697;28;19967;-70
2022/11/09 00:52:25;;;;;;;;;;;;;;;;;;5004232;28;19921;-71
2022/11/09 00:54:51;;;;;;;;;;;;;;;;;;5014016;28;19998;-72
2022/11/09 00:57:16;;;;;;;;;;;;;;;;;;5011924;28;20000;-71
2022/11/09 00:59:42;;;;;;;;;;;;;;;;;;5011228;28;19928;-71
2022/11/09 01:02:08;;;;;;;;;;;;;;;;;;5009002;28;19925;-72
2022/11/09 01:04:37;;;;;;;;;;;;;;;;;;5012528;28;19921;-72
2022/11/09 01:07:03;;;;;;;;;;;;;;;;;;5012999;28;20005;-72
2022/11/09 01:09:29;;;;;;;;;;;;;;;;;;5015688;28;19960;-72
2022/11/09 01:11:54;;;;;;;;;;;;;;;;;;5013232;28;20334;-71
2022/11/09 01:14:20;;;;;;;;;;;;;;;;;;5012100;28;20411;-71
2022/11/09 01:16:46;;;;;;;;;;;;;;;;;;5013124;28;20379;-72
2022/11/09 01:19:12;;;;;;;;;;;;;;;;;;5011390;28;19975;-71
2022/11/09 01:21:38;;;;;;;;;;;;;;;;;;5010684;28;20059;-72
2022/11/09 01:24:04;;;;;;;;;;;;;;;;;;5010658;28;20440;-72
2022/11/09 01:26:30;;;;;;;;;;;;;;;;;;5005892;28;19944;-72
2022/11/09 01:28:56;;;;;;;;;;;;;;;;;;5008576;28;19929;-72
2022/11/09 01:31:22;;;;;;;;;;;;;;;;;;5007687;28;20379;-72
2022/11/09 01:33:48;;;;;;;;;;;;;;;;;;5008341;28;19925;-73
2022/11/09 01:36:14;;;;;;;;;;;;;;;;;;5003723;28;19944;-72
2022/11/09 01:38:40;;;;;;;;;;;;;;;;;;5009568;28;20283;-73
2022/11/09 01:41:06;;;;;;;;;;;;;;;;;;5002762;28;19921;-72
2022/11/09 01:43:32;;;;;;;;;;;;;;;;;;5007482;28;19976;-73
2022/11/09 01:45:58;;;;;;;;;;;;;;;;;;5010677;28;20330;-72
2022/11/09 01:48:24;;;;;;;;;;;;;;;;;;5009395;28;19939;-72
2022/11/09 01:50:50;;;;;;;;;;;;;;;;;;5012531;28;20331;-72
2022/11/09 01:53:16;;;;;;;;;;;;;;;;;;5014499;28;19983;-73
2022/11/09 01:55:42;;;;;;;;;;;;;;;;;;5014871;28;20008;-72
2022/11/09 01:58:08;;;;;;;;;;;;;;;;;;5012740;28;19921;-74
2022/11/09 02:00:34;;;;;;;;;;;;;;;;;;5022957;23;19920;-71
2022/11/09 02:03:00;;;;;;;;;;;;;;;;;;5049061;28;19920;-73
2022/11/09 02:05:25;;;;;;;;;;;;;;;;;;5046832;28;19960;-72
2022/11/09 02:07:51;;;;;;;;;;;;;;;;;;5041791;28;19928;-71
2022/11/09 02:10:17;;;;;;;;;;;;;;;;;;5048889;28;19921;-72
2022/11/09 02:12:43;;;;;;;;;;;;;;;;;;5047280;28;19928;-72
2022/11/09 02:15:09;;;;;;;;;;;;;;;;;;5044766;28;19920;-73
2022/11/09 02:17:35;;;;;;;;;;;;;;;;;;5046280;28;19945;-72
2022/11/09 02:20:02;;;;;;;;;;;;;;;;;;5048073;28;19921;-71
2022/11/09 02:22:28;;;;;;;;;;;;;;;;;;5049036;28;19928;-71
2022/11/09 02:24:54;;;;;;;;;;;;;;;;;;5053416;28;19973;-71
2022/11/09 02:27:20;;;;;;;;;;;;;;;;;;5050155;28;20037;-71
2022/11/09 02:29:46;;;;;;;;;;;;;;;;;;5042102;28;20979;-70
2022/11/09 02:32:12;;;;;;;;;;;;;;;;;;5043746;28;20015;-72
2022/11/09 02:34:38;;;;;;;;;;;;;;;;;;5048433;28;20010;-72
2022/11/09 02:37:04;;;;;;;;;;;;;;;;;;5048289;28;20031;-70
2022/11/09 02:39:30;;;;;;;;;;;;;;;;;;5057026;28;20473;-72
2022/11/09 02:41:56;;;;;;;;;;;;;;;;;;5038811;28;19921;-72
2022/11/09 02:44:22;;;;;;;;;;;;;;;;;;5027971;28;19920;-71
2022/11/09 02:46:48;;;;;;;;;;;;;;;;;;5032833;28;20293;-73
2022/11/09 02:49:14;;;;;;;;;;;;;;;;;;5014019;28;19921;-72
2022/11/09 02:51:40;;;;;;;;;;;;;;;;;;5033320;28;19925;-72
2022/11/09 02:54:06;;;;;;;;;;;;;;;;;;5035717;28;19967;-72
2022/11/09 02:56:32;;;;;;;;;;;;;;;;;;5030242;28;19929;-72
2022/11/09 02:58:58;;;;;;;;;;;;;;;;;;5026495;28;19991;-72
2022/11/09 03:01:24;;;;;;;;;;;;;;;;;;5045140;28;20278;-71
2022/11/09 03:03:50;;;;;;;;;;;;;;;;;;5025465;28;19929;-72
2022/11/09 03:06:15;;;;;;;;;;;;;;;;;;5044018;28;20367;-72
2022/11/09 03:08:41;;;;;;;;;;;;;;;;;;5035485;28;19952;-72
2022/11/09 03:11:07;;;;;;;;;;;;;;;;;;5034704;28;20317;-71
2022/11/09 03:13:33;;;;;;;;;;;;;;;;;;5013094;28;19921;-71
2022/11/09 03:15:59;;;;;;;;;;;;;;;;;;5043717;28;19920;-72
2022/11/09 03:18:25;;;;;;;;;;;;;;;;;;5053178;28;19967;-72
2022/11/09 03:20:51;;;;;;;;;;;;;;;;;;5030455;28;19934;-72
2022/11/09 03:23:17;;;;;;;;;;;;;;;;;;5049271;28;20012;-72
2022/11/09 03:25:43;;;;;;;;;;;;;;;;;;5049141;28;20003;-71
2022/11/09 03:28:09;;;;;;;;;;;;;;;;;;5047484;28;19920;-72
2022/11/09 03:30:35;;;;;;;;;;;;;;;;;;5047435;28;20285;-71
2022/11/09 03:33:01;;;;;;;;;;;;;;;;;;5047151;28;19953;-73
2022/11/09 03:35:27;;;;;;;;;;;;;;;;;;5051861;28;20282;-72
2022/11/09 03:37:52;;;;;;;;;;;;;;;;;;5029107;28;19920;-71
2022/11/09 03:40:18;;;;;;;;;;;;;;;;;;5050152;28;19920;-71
2022/11/09 03:42:44;;;;;;;;;;;;;;;;;;5049596;28;19955;-73
2022/11/09 03:45:10;;;;;;;;;;;;;;;;;;5044560;28;19929;-73
2022/11/09 03:47:36;;;;;;;;;;;;;;;;;;5050993;28;19925;-72
2022/11/09 03:50:02;;;;;;;;;;;;;;;;;;5052260;28;19921;-72
2022/11/09 03:52:28;;;;;;;;;;;;;;;;;;5050120;28;19921;-72
2022/11/09 03:54:54;;;;;;;;;;;;;;;;;;5049930;28;20273;-74
2022/11/09 03:57:20;;;;;;;;;;;;;;;;;;5044193;28;19929;-71
2022/11/09 03:59:46;;;;;;;;;;;;;;;;;;5049973;28;19929;-71
2022/11/09 04:02:12;;;;;;;;;;;;;;;;;;5050829;28;19962;-72
2022/11/09 04:04:38;;;;;;;;;;;;;;;;;;5047021;28;19959;-71
2022/11/09 04:07:04;;;;;;;;;;;;;;;;;;5042710;28;19920;-71
2022/11/09 04:09:29;;;;;;;;;;;;;;;;;;5051984;28;19931;-72
2022/11/09 04:11:58;;;;;;;;;;;;;;;;;;5051370;28;20366;-70
2022/11/09 04:14:24;;;;;;;;;;;;;;;;;;5033152;28;19929;-71
2022/11/09 04:16:50;;;;;;;;;;;;;;;;;;5046519;28;19963;-71
2022/11/09 04:19:16;;;;;;;;;;;;;;;;;;5050634;28;19933;-72
2022/11/09 04:21:42;;;;;;;;;;;;;;;;;;5050118;28;20039;-72
2022/11/09 04:24:08;;;;;;;;;;;;;;;;;;5033740;28;19952;-71
2022/11/09 04:26:34;;;;;;;;;;;;;;;;;;5031980;28;19956;-72
2022/11/09 04:29:00;;;;;;;;;;;;;;;;;;5051393;28;20023;-72
2022/11/09 04:31:26;;;;;;;;;;;;;;;;;;5047790;28;19920;-71
2022/11/09 04:33:52;;;;;;;;;;;;;;;;;;5025309;28;19942;-72
2022/11/09 04:36:18;;;;;;;;;;;;;;;;;;5050893;28;19929;-72
2022/11/09 04:38:43;;;;;;;;;;;;;;;;;;5049540;28;19929;-71
2022/11/09 04:41:09;;;;;;;;;;;;;;;;;;5051755;28;19924;-70
2022/11/09 04:43:35;;;;;;;;;;;;;;;;;;5050099;28;19924;-72
2022/11/09 04:46:01;;;;;;;;;;;;;;;;;;5048285;28;20492;-72
2022/11/09 04:48:27;;;;;;;;;;;;;;;;;;5032144;28;19920;-72
2022/11/09 04:50:53;;;;;;;;;;;;;;;;;;5051918;28;19928;-71
2022/11/09 04:53:19;;;;;;;;;;;;;;;;;;5049115;28;19924;-72
2022/11/09 04:55:45;;;;;;;;;;;;;;;;;;5047395;28;19935;-72
2022/11/09 04:58:11;;;;;;;;;;;;;;;;;;5046763;28;19924;-71
2022/11/09 05:00:37;;;;;;;;;;;;;;;;;;5043206;28;20536;-70
2022/11/09 05:03:03;;;;;;;;;;;;;;;;;;5049989;28;20059;-71
2022/11/09 05:05:29;;;;;;;;;;;;;;;;;;5045170;28;19982;-72
2022/11/09 05:07:55;;;;;;;;;;;;;;;;;;5046749;28;19920;-71
2022/11/09 05:10:20;;;;;;;;;;;;;;;;;;5031278;28;19921;-74
2022/11/09 05:12:46;;;;;;;;;;;;;;;;;;5047206;28;19924;-72
2022/11/09 05:15:15;;;;;;;;;;;;;;;;;;5048772;28;19929;-71
2022/11/09 05:17:41;;;;;;;;;;;;;;;;;;5048807;28;20298;-72
2022/11/09 05:20:07;;;;;;;;;;;;;;;;;;5050623;28;19920;-71
2022/11/09 05:25:18;;;;;;;;;;;;;;;;;;5046468;28;19929;-71
2022/11/09 05:27:44;;;;;;;;;;;;;;;;;;5045329;28;19966;-71
2022/11/09 05:30:09;;;;;;;;;;;;;;;;;;5049625;28;20885;-71
2022/11/09 05:32:35;;;;;;;;;;;;;;;;;;5045552;28;19968;-71
2022/11/09 05:35:01;;;;;;;;;;;;;;;;;;5046288;28;20036;-71
2022/11/09 05:37:27;;;;;;;;;;;;;;;;;;5050043;28;20367;-71
2022/11/09 05:39:53;;;;;;;;;;;;;;;;;;5047467;28;19934;-72
2022/11/09 05:42:19;;;;;;;;;;;;;;;;;;5047229;28;20007;-71
2022/11/09 05:44:45;;;;;;;;;;;;;;;;;;5043601;28;19925;-71
2022/11/09 05:47:11;;;;;;;;;;;;;;;;;;5037741;28;19928;-72
2022/11/09 05:49:37;;;;;;;;;;;;;;;;;;5048592;28;19935;-71
2022/11/09 05:52:03;;;;;;;;;;;;;;;;;;5044028;28;19936;-71
2022/11/09 05:54:29;;;;;;;;;;;;;;;;;;5043019;28;19916;-72
2022/11/09 05:56:55;;;;;;;;;;;;;;;;;;5023037;28;20020;-71
2022/11/09 05:59:21;;;;;;;;;;;;;;;;;;5045977;28;20011;-72
2022/11/09 06:01:46;;;;;;;;;;;;;;;;;;5040456;28;20463;-72
2022/11/09 06:04:12;;;;;;;;;;;;;;;;;;5040168;28;20165;-71
2022/11/09 06:06:38;;;;;;;;;;;;;;;;;;5047778;28;19921;-72
2022/11/09 06:09:04;;;;;;;;;;;;;;;;;;5045905;28;19979;-72
2022/11/09 06:11:30;;;;;;;;;;;;;;;;;;5040153;28;19929;-72
2022/11/09 06:13:56;;;;;;;;;;;;;;;;;;5041274;28;19920;-71
2022/11/09 06:16:22;;;;;;;;;;;;;;;;;;5048698;28;20007;-71
2022/11/09 06:18:48;;;;;;;;;;;;;;;;;;5049426;28;19921;-72
2022/11/09 06:21:14;;;;;;;;;;;;;;;;;;5044479;28;19928;-73
2022/11/09 06:23:40;;;;;;;;;;;;;;;;;;5050060;28;19921;-72
2022/11/09 06:26:06;;;;;;;;;;;;;;;;;;5049205;28;20016;-70
2022/11/09 06:28:32;;;;;;;;;;;;;;;;;;5045288;28;19921;-71
2022/11/09 06:30:58;;;;;;;;;;;;;;;;;;5028174;28;19924;-72
2022/11/09 06:33:24;;;;;;;;;;;;;;;;;;5050057;28;19974;-71
2022/11/09 06:35:50;;;;;;;;;;;;;;;;;;5044215;28;19968;-70
2022/11/09 06:38:16;;;;;;;;;;;;;;;;;;5047275;28;19920;-71
2022/11/09 06:40:42;;;;;;;;;;;;;;;;;;5052853;28;20289;-70
2022/11/09 06:43:08;;;;;;;;;;;;;;;;;;5050418;28;19924;-71
2022/11/09 06:45:34;;;;;;;;;;;;;;;;;;5046829;28;20017;-71
2022/11/09 06:48:00;;;;;;;;;;;;;;;;;;5029733;28;20407;-72
2022/11/09 06:50:26;;;;;;;;;;;;;;;;;;5049573;28;19935;-71
2022/11/09 06:52:52;;;;;;;;;;;;;;;;;;5052631;28;19943;-72
2022/11/09 06:55:18;;;;;;;;;;;;;;;;;;5032510;28;20027;-73
2022/11/09 06:57:43;;;;;;;;;;;;;;;;;;5033929;28;19956;-71
2022/11/09 07:00:09;;;;;;;;;;;;;;;;;;5030110;28;19956;-72
2022/11/09 07:02:36;;;;;;;;;;;;;;;;;;5031729;28;20442;-72
2022/11/09 07:05:01;;;;;;;;;;;;;;;;;;5051208;28;19920;-72
2022/11/09 07:07:27;;;;;;;;;;;;;;;;;;5052721;28;19921;-72
2022/11/09 07:09:57;;;;;;;;;;;;;;;;;;5052189;28;19920;-73
2022/11/09 07:12:23;;;;;;;;;;;;;;;;;;5053224;28;19921;-72
2022/11/09 07:14:48;;;;;;;;;;;;;;;;;;5048620;28;19927;-73
2022/11/09 07:17:14;;;;;;;;;;;;;;;;;;5053173;28;20042;-73
2022/11/09 07:19:40;;;;;;;;;;;;;;;;;;5052806;28;19939;-72
2022/11/09 07:22:06;;;;;;;;;;;;;;;;;;5047542;28;19921;-72
2022/11/09 07:24:32;;;;;;;;;;;;;;;;;;5018013;28;19987;-72
2022/11/09 07:26:58;;;;;;;;;;;;;;;;;;5047880;28;19925;-71
2022/11/09 07:29:24;;;;;;;;;;;;;;;;;;5049288;28;20405;-72
2022/11/09 07:31:50;;;;;;;;;;;;;;;;;;5030225;28;19924;-71
2022/11/09 07:34:16;;;;;;;;;;;;;;;;;;5054638;28;19990;-70
2022/11/09 07:36:42;;;;;;;;;;;;;;;;;;5054412;28;20525;-73
2022/11/09 07:39:08;;;;;;;;;;;;;;;;;;5036089;28;19924;-73
2022/11/09 07:41:33;;;;;;;;;;;;;;;;;;5034824;28;19928;-71
2022/11/09 07:43:59;;;;;;;;;;;;;;;;;;5053001;28;19966;-72
2022/11/09 07:46:25;;;;;;;;;;;;;;;;;;5035006;28;20011;-71
2022/11/09 07:48:51;;;;;;;;;;;;;;;;;;5054125;28;19928;-70
2022/11/09 07:51:17;;;;;;;;;;;;;;;;;;5035009;28;19925;-71
2022/11/09 07:53:43;;;;;;;;;;;;;;;;;;5019331;28;20294;-71
2022/11/09 07:56:09;;;;;;;;;;;;;;;;;;5054118;28;20074;-71
2022/11/09 07:58:35;;;;;;;;;;;;;;;;;;5053164;28;20015;-71
2022/11/09 08:01:01;;;;;;;;;;;;;;;;;;5034929;28;19920;-70
2022/11/09 08:03:27;;;;;;;;;;;;;;;;;;5044230;28;19973;-71
2022/11/09 08:05:53;;;;;;;;;;;;;;;;;;5053877;28;20270;-73
2022/11/09 08:08:19;;;;;;;;;;;;;;;;;;5053769;28;19921;-71
2022/11/09 08:10:50;;;;;;;;;;;;;;;;;;5035434;28;19921;-72
2022/11/09 08:13:16;;;;;;;;;;;;;;;;;;5053858;28;19921;-72
2022/11/09 08:15:42;;;;;;;;;;;;;;;;;;5053471;28;19921;-71
2022/11/09 08:18:07;;;;;;;;;;;;;;;;;;5052582;28;19924;-72
2022/11/09 08:20:33;;;;;;;;;;;;;;;;;;5035845;28;20298;-72
2022/11/09 08:22:59;;;;;;;;;;;;;;;;;;5052742;28;20000;-72
2022/11/09 08:25:25;;;;;;;;;;;;;;;;;;5049317;28;19921;-69
2022/11/09 08:27:51;;;;;;;;;;;;;;;;;;5046175;28;19925;-73
2022/11/09 08:30:17;;;;;;;;;;;;;;;;;;5032906;28;19997;-71
2022/11/09 08:32:43;;;;;;;;;;;;;;;;;;5050207;28;19920;-72
2022/11/09 08:35:09;;;;;;;;;;;;;;;;;;5053420;28;19921;-73
2022/11/09 08:37:35;;;;;;;;;;;;;;;;;;5050990;28;20290;-69
2022/11/09 08:40:01;;;;;;;;;;;;;;;;;;5052374;28;20015;-71
2022/11/09 08:42:27;;;;;;;;;;;;;;;;;;5050226;28;19925;-71
2022/11/09 08:44:52;;;;;;;;;;;;;;;;;;5050768;28;19921;-71
2022/11/09 08:47:18;;;;;;;;;;;;;;;;;;5050681;28;19973;-73
2022/11/09 08:49:46;;;;;;;;;;;;;;;;;;5051214;28;19943;-71
2022/11/09 08:52:11;;;;;;;;;;;;;;;;;;5048990;28;19920;-71
2022/11/09 08:54:37;;;;;;;;;;;;;;;;;;5049174;28;20347;-71
2022/11/09 08:57:03;;;;;;;;;;;;;;;;;;5049741;28;19928;-70
2022/11/09 08:59:29;;;;;;;;;;;;;;;;;;5051699;28;19929;-72
2022/11/09 09:01:55;;;;;;;;;;;;;;;;;;5049836;28;19936;-72
2022/11/09 09:04:21;;;;;;;;;;;;;;;;;;5047842;28;19972;-69
2022/11/09 09:06:47;;;;;;;;;;;;;;;;;;5030508;28;19927;-70
2022/11/09 09:09:13;;;;;;;;;;;;;;;;;;5047620;28;19974;-71
2022/11/09 09:11:39;;;;;;;;;;;;;;;;;;5047246;28;19928;-71
2022/11/09 09:14:05;;;;;;;;;;;;;;;;;;5048641;28;20366;-73
2022/11/09 09:16:31;;;;;;;;;;;;;;;;;;5049473;28;19921;-70
2022/11/09 09:18:57;;;;;;;;;;;;;;;;;;5049051;28;19925;-72
2022/11/09 09:21:23;;;;;;;;;;;;;;;;;;5049339;28;20290;-72
2022/11/09 09:23:48;;;;;;;;;;;;;;;;;;5030796;28;19924;-73
2022/11/09 09:26:14;;;;;;;;;;;;;;;;;;5049968;28;20087;-72
2022/11/09 09:28:40;;;;;;;;;;;;;;;;;;5049786;28;21006;-71
2022/11/09 09:31:06;;;;;;;;;;;;;;;;;;5047851;28;19921;-73
2022/11/09 09:33:32;;;;;;;;;;;;;;;;;;5043573;28;19994;-70
2022/11/09 09:35:58;;;;;;;;;;;;;;;;;;5032563;28;20340;-71
2022/11/09 09:38:24;;;;;;;;;;;;;;;;;;5048623;28;20376;-71
2022/11/09 09:40:50;;;;;;;;;;;;;;;;;;5047965;28;19921;-72
2022/11/09 09:43:16;;;;;;;;;;;;;;;;;;5045385;28;20393;-70
2022/11/09 09:45:42;;;;;;;;;;;;;;;;;;5030726;28;20607;-69
2022/11/09 09:48:08;;;;;;;;;;;;;;;;;;5050018;28;20072;-71
2022/11/09 09:50:36;;;;;;;;;;;;;;;;;;5051135;28;20054;-70
2022/11/09 09:53:02;;;;;;;;;;;;;;;;;;5033514;28;20441;-71
2022/11/09 09:55:29;;;;;;;;;;;;;;;;;;5050767;28;20012;-72
2022/11/09 09:57:55;;;;;;;;;;;;;;;;;;5051782;28;19920;-71
2022/11/09 10:00:22;;;;;;;;;;;;;;;;;;5050712;28;19928;-68
2022/11/09 10:02:49;;;;;;;;;;;;;;;;;;5046230;28;19916;-69
2022/11/09 10:05:15;;;;;;;;;;;;;;;;;;5051419;28;19924;-71
2022/11/09 10:07:41;;;;;;;;;;;;;;;;;;5050215;28;20001;-72
2022/11/09 10:10:07;;;;;;;;;;;;;;;;;;5048676;28;19924;-71
2022/11/09 10:12:33;;;;;;;;;;;;;;;;;;5048174;28;20377;-70
2022/11/09 10:14:59;;;;;;;;;;;;;;;;;;5049805;28;19931;-70
2022/11/09 10:17:25;;;;;;;;;;;;;;;;;;5051642;28;19921;-72
2022/11/09 10:19:51;;;;;;;;;;;;;;;;;;5053031;28;19928;-70
2022/11/09 10:22:17;;;;;;;;;;;;;;;;;;5053187;28;19979;-72
2022/11/09 10:24:43;;;;;;;;;;;;;;;;;;5054015;28;19966;-71
2022/11/09 10:27:09;;;;;;;;;;;;;;;;;;5051702;28;20007;-72
2022/11/09 10:29:34;;;;;;;;;;;;;;;;;;5050459;28;20007;-74
2022/11/09 10:32:00;;;;;;;;;;;;;;;;;;5044964;28;19971;-71
2022/11/09 10:34:26;;;;;;;;;;;;;;;;;;5052194;28;19920;-73
2022/11/09 10:36:52;;;;;;;;;;;;;;;;;;5037227;28;19935;-70
2022/11/09 10:39:18;;;;;;;;;;;;;;;;;;5051264;28;19925;-72
2022/11/09 10:41:47;;;;;;;;;;;;;;;;;;5037161;28;19967;-71
2022/11/09 10:44:14;;;;;;;;;;;;;;;;;;5050640;28;20445;-73
2022/11/09 10:46:40;;;;;;;;;;;;;;;;;;5051039;28;19927;-71
2022/11/09 10:49:06;;;;;;;;;;;;;;;;;;5052013;28;19920;-70
2022/11/09 10:51:31;;;;;;;;;;;;;;;;;;5052359;28;19928;-71
2022/11/09 10:53:57;;;;;;;;;;;;;;;;;;5055394;28;19932;-71
2022/11/09 10:56:26;;;;;;;;;;;;;;;;;;5050946;28;19974;-71
2022/11/09 10:58:51;;;;;;;;;;;;;;;;;;5033032;28;19936;-70
2022/11/09 11:01:17;;;;;;;;;;;;;;;;;;5051914;28;19925;-70
2022/11/09 11:03:43;;;;;;;;;;;;;;;;;;5052588;28;19920;-71
2022/11/09 11:06:09;;;;;;;;;;;;;;;;;;5053636;28;19921;-70
2022/11/09 11:08:35;;;;;;;;;;;;;;;;;;5051247;28;19927;-70
2022/11/09 11:11:01;;;;;;;;;;;;;;;;;;5051669;28;19925;-71
2022/11/09 11:13:27;;;;;;;;;;;;;;;;;;5054205;28;19975;-73
2022/11/09 11:15:53;;;;;;;;;;;;;;;;;;5051483;28;19975;-71
2022/11/09 11:18:19;;;;;;;;;;;;;;;;;;5044465;28;20362;-72
2022/11/09 11:20:45;;;;;;;;;;;;;;;;;;5036765;28;19921;-71
2022/11/09 11:23:11;;;;;;;;;;;;;;;;;;5037044;28;19931;-72
2022/11/09 11:25:37;;;;;;;;;;;;;;;;;;5053407;28;20358;-71
2022/11/09 11:28:03;;;;;;;;;;;;;;;;;;5051776;28;19927;-71
2022/11/09 11:30:29;;;;;;;;;;;;;;;;;;5049949;28;19929;-72
2022/11/09 11:32:55;;;;;;;;;;;;;;;;;;5051164;28;19960;-72
2022/11/09 11:35:21;;;;;;;;;;;;;;;;;;5046544;28;19936;-72
2022/11/09 11:37:47;;;;;;;;;;;;;;;;;;5051426;28;19973;-73
2022/11/09 11:40:16;;;;;;;;;;;;;;;;;;5051754;28;19928;-73
2022/11/09 11:42:42;;;;;;;;;;;;;;;;;;5040998;28;19975;-71
2022/11/09 11:45:07;;;;;;;;;;;;;;;;;;5046195;28;19956;-72
2022/11/09 11:47:34;;;;;;;;;;;;;;;;;;5049380;28;19921;-72
2022/11/09 11:50:00;;;;;;;;;;;;;;;;;;5051783;28;19921;-70
2022/11/09 11:52:26;;;;;;;;;;;;;;;;;;5045095;28;20294;-70
2022/11/09 11:54:52;;;;;;;;;;;;;;;;;;5047501;28;19929;-71
2022/11/09 11:57:18;;;;;;;;;;;;;;;;;;5043822;28;19933;-72
2022/11/09 11:59:44;;;;;;;;;;;;;;;;;;5039162;28;19920;-71
2022/11/09 12:02:10;;;;;;;;;;;;;;;;;;5044808;28;19920;-71
2022/11/09 12:04:36;;;;;;;;;;;;;;;;;;5040173;28;20330;-71
2022/11/09 12:07:02;;;;;;;;;;;;;;;;;;5039144;28;19940;-71
2022/11/09 12:09:28;;;;;;;;;;;;;;;;;;5040207;28;19920;-70
2022/11/09 12:11:54;;;;;;;;;;;;;;;;;;5045413;28;19933;-71
2022/11/09 12:14:19;;;;;;;;;;;;;;;;;;5044312;28;19925;-70
2022/11/09 12:16:45;;;;;;;;;;;;;;;;;;5047477;28;19921;-71
2022/11/09 12:19:11;;;;;;;;;;;;;;;;;;5044518;28;19929;-72
2022/11/09 12:21:37;;;;;;;;;;;;;;;;;;5045351;28;19925;-71
2022/11/09 12:24:03;;;;;;;;;;;;;;;;;;5045048;28;19924;-70
2022/11/09 12:26:29;;;;;;;;;;;;;;;;;;5049343;28;20326;-71
2022/11/09 12:28:55;;;;;;;;;;;;;;;;;;5015671;28;20211;-72
2022/11/09 12:31:23;;;;;;;;;;;;;;;;;;5043078;28;19935;-71
2022/11/09 12:33:49;;;;;;;;;;;;;;;;;;5044858;28;19927;-71
2022/11/09 12:36:16;;;;;;;;;;;;;;;;;;5047395;28;19925;-71
2022/11/09 12:38:42;;;;;;;;;;;;;;;;;;5048517;28;19946;-71
2022/11/09 12:41:08;;;;;;;;;;;;;;;;;;5046586;28;19921;-71
2022/11/09 12:43:33;;;;;;;;;;;;;;;;;;5050821;28;19921;-72
2022/11/09 12:45:59;;;;;;;;;;;;;;;;;;5048766;28;20007;-72
2022/11/09 12:48:27;;;;;;;;;;;;;;;;;;5051041;28;19928;-73
2022/11/09 12:50:53;;;;;;;;;;;;;;;;;;5050639;28;19928;-71
2022/11/09 12:53:19;;;;;;;;;;;;;;;;;;5045489;28;19920;-72
2022/11/09 12:55:45;;;;;;;;;;;;;;;;;;5046408;28;19978;-70
2022/11/09 12:58:11;;;;;;;;;;;;;;;;;;5048429;28;19925;-73
2022/11/09 13:00:37;;;;;;;;;;;;;;;;;;5044599;28;19921;-71
2022/11/09 13:03:03;;;;;;;;;;;;;;;;;;5049364;28;19924;-72
2022/11/09 13:05:29;;;;;;;;;;;;;;;;;;5030230;28;19920;-72
2022/11/09 13:07:55;;;;;;;;;;;;;;;;;;5048398;28;19947;-72
2022/11/09 13:10:21;;;;;;;;;;;;;;;;;;5051760;28;19924;-72
2022/11/09 13:12:47;;;;;;;;;;;;;;;;;;5051822;28;19990;-72
2022/11/09 13:15:13;;;;;;;;;;;;;;;;;;5044830;28;19921;-73
2022/11/09 13:17:39;;;;;;;;;;;;;;;;;;5046135;28;19932;-72
2022/11/09 13:20:05;;;;;;;;;;;;;;;;;;5051632;28;20242;-72
2022/11/09 13:22:31;;;;;;;;;;;;;;;;;;5051533;28;19932;-72
2022/11/09 13:24:58;;;;;;;;;;;;;;;;;;5034417;28;19928;-71
2022/11/09 13:27:24;;;;;;;;;;;;;;;;;;5043638;28;19928;-72
2022/11/09 13:29:50;;;;;;;;;;;;;;;;;;5044881;28;19927;-72
2022/11/09 13:32:16;;;;;;;;;;;;;;;;;;5045231;28;19921;-73
2022/11/09 13:34:42;;;;;;;;;;;;;;;;;;5044622;28;19921;-73
2022/11/09 13:37:08;;;;;;;;;;;;;;;;;;5042452;28;19927;-72
2022/11/09 13:39:34;;;;;;;;;;;;;;;;;;5046365;28;19920;-71
2022/11/09 13:42:00;;;;;;;;;;;;;;;;;;5047485;28;19935;-73
2022/11/09 13:44:26;;;;;;;;;;;;;;;;;;5023396;28;19996;-73
2022/11/09 13:46:52;;;;;;;;;;;;;;;;;;5042276;28;19940;-71
2022/11/09 13:49:18;;;;;;;;;;;;;;;;;;5046273;28;19992;-73
2022/11/09 13:51:45;;;;;;;;;;;;;;;;;;5038484;28;19921;-72
2022/11/09 13:54:10;;;;;;;;;;;;;;;;;;5047541;28;19975;-74
2022/11/09 13:56:39;;;;;;;;;;;;;;;;;;5038978;28;19921;-73
2022/11/09 13:59:05;;;;;;;;;;;;;;;;;;5053041;28;19921;-72
2022/11/09 14:01:31;;;;;;;;;;;;;;;;;;5033054;28;19925;-73
2022/11/09 14:03:57;;;;;;;;;;;;;;;;;;5035651;28;19920;-71
2022/11/09 14:06:23;;;;;;;;;;;;;;;;;;5056782;28;19936;-72
2022/11/09 14:08:49;;;;;;;;;;;;;;;;;;5046007;28;20003;-72
2022/11/09 14:11:15;;;;;;;;;;;;;;;;;;5053212;28;20018;-73
2022/11/09 14:13:41;;;;;;;;;;;;;;;;;;5039610;28;19925;-73
2022/11/09 14:16:07;;;;;;;;;;;;;;;;;;5051962;28;20339;-74
2022/11/09 14:18:32;;;;;;;;;;;;;;;;;;5049480;28;20015;-73
2022/11/09 14:20:58;;;;;;;;;;;;;;;;;;5053209;28;19972;-73
2022/11/09 14:23:24;;;;;;;;;;;;;;;;;;5055141;28;19928;-74
2022/11/09 14:25:50;;;;;;;;;;;;;;;;;;5047637;28;19933;-74
2022/11/09 14:28:16;;;;;;;;;;;;;;;;;;5043920;28;19928;-73
2022/11/09 14:30:42;;;;;;;;;;;;;;;;;;5048927;28;20030;-72
2022/11/09 14:33:08;;;;;;;;;;;;;;;;;;5046655;28;19921;-73
2022/11/09 14:35:34;;;;;;;;;;;;;;;;;;5017920;28;19921;-74
2022/11/09 14:38:00;;;;;;;;;;;;;;;;;;5046198;28;19924;-72
2022/11/09 14:40:26;;;;;;;;;;;;;;;;;;5055161;28;19932;-73
2022/11/09 14:42:52;;;;;;;;;;;;;;;;;;5054041;28;19927;-72
2022/11/09 14:45:18;;;;;;;;;;;;;;;;;;5056124;28;19920;-73
2022/11/09 14:47:44;;;;;;;;;;;;;;;;;;5055045;28;19921;-74
2022/11/09 14:50:10;;;;;;;;;;;;;;;;;;5056334;28;20665;-74
2022/11/09 14:52:36;;;;;;;;;;;;;;;;;;5054584;28;19920;-74
2022/11/09 14:55:02;;;;;;;;;;;;;;;;;;5044933;28;20180;-73
2022/11/09 14:57:28;;;;;;;;;;;;;;;;;;5049587;28;19925;-73
2022/11/09 14:59:54;;;;;;;;;;;;;;;;;;5052275;28;19994;-73
2022/11/09 15:02:20;;;;;;;;;;;;;;;;;;5050127;28;19959;-73
2022/11/09 15:04:46;;;;;;;;;;;;;;;;;;5053086;28;20255;-74
2022/11/09 15:07:12;;;;;;;;;;;;;;;;;;5052960;28;20011;-73
2022/11/09 15:09:37;;;;;;;;;;;;;;;;;;5052560;28;19927;-71
2022/11/09 15:12:03;;;;;;;;;;;;;;;;;;5045380;28;19952;-73
2022/11/09 15:14:29;;;;;;;;;;;;;;;;;;5053310;28;20385;-73
2022/11/09 15:16:55;;;;;;;;;;;;;;;;;;5052508;28;19946;-72
2022/11/09 15:19:21;;;;;;;;;;;;;;;;;;5055294;28;19925;-73
2022/11/09 15:21:47;;;;;;;;;;;;;;;;;;5053926;28;20297;-73
2022/11/09 15:24:16;;;;;;;;;;;;;;;;;;5052040;28;19924;-75
2022/11/09 15:26:43;;;;;;;;;;;;;;;;;;5055278;28;19921;-71
2022/11/09 15:29:09;;;;;;;;;;;;;;;;;;5055140;28;19974;-74
2022/11/09 15:31:34;;;;;;;;;;;;;;;;;;5054025;28;19920;-73
2022/11/09 15:34:01;;;;;;;;;;;;;;;;;;5053933;28;19921;-73
2022/11/09 15:36:26;;;;;;;;;;;;;;;;;;5054143;28;20428;-72
2022/11/09 15:38:52;;;;;;;;;;;;;;;;;;5053384;28;19920;-73
2022/11/09 15:41:18;;;;;;;;;;;;;;;;;;5040319;28;19921;-73
2022/11/09 15:43:44;;;;;;;;;;;;;;;;;;5052631;28;19943;-72
2022/11/09 15:46:10;;;;;;;;;;;;;;;;;;5054464;28;19967;-72
2022/11/09 15:48:36;;;;;;;;;;;;;;;;;;5051278;28;20004;-73
2022/11/09 15:51:02;;;;;;;;;;;;;;;;;;5024024;28;19920;-71
2022/11/09 15:53:28;;;;;;;;;;;;;;;;;;5036201;28;19921;-72
2022/11/09 15:55:54;;;;;;;;;;;;;;;;;;5032904;28;19972;-72
2022/11/09 15:58:20;;;;;;;;;;;;;;;;;;5045548;28;19960;-71
2022/11/09 16:00:46;;;;;;;;;;;;;;;;;;5041341;28;19933;-73
2022/11/09 16:03:12;;;;;;;;;;;;;;;;;;5051224;28;19920;-72
2022/11/09 16:05:38;;;;;;;;;;;;;;;;;;5047816;28;19921;-72
2022/11/09 16:08:06;;;;;;;;;;;;;;;;;;5045082;28;19990;-72
2022/11/09 16:10:36;;;;;;;;;;;;;;;;;;5043311;28;19925;-71
2022/11/09 16:13:02;;;;;;;;;;;;;;;;;;5046819;28;19924;-72
2022/11/09 16:15:27;;;;;;;;;;;;;;;;;;5045298;28;20020;-72
2022/11/09 16:17:53;;;;;;;;;;;;;;;;;;5016041;28;20023;-71
2022/11/09 16:20:19;;;;;;;;;;;;;;;;;;5009818;28;21173;-71
2022/11/09 16:22:46;;;;;;;;;;;;;;;;;;5028854;28;19932;-71
2022/11/09 16:25:12;;;;;;;;;;;;;;;;;;5052471;28;19929;-72
2022/11/09 16:27:38;;;;;;;;;;;;;;;;;;5051437;28;19929;-71
2022/11/09 16:30:04;;;;;;;;;;;;;;;;;;5030452;28;19981;-71
2022/11/09 16:32:30;;;;;;;;;;;;;;;;;;5045856;28;19925;-71
2022/11/09 16:34:56;;;;;;;;;;;;;;;;;;5049739;28;20018;-71
2022/11/09 16:37:22;;;;;;;;;;;;;;;;;;5044808;28;20456;-71
2022/11/09 16:39:48;;;;;;;;;;;;;;;;;;5026125;28;19931;-70